sensor_id;sensor_type;location;lat;lon;timestamp;P1;durP1;ratioP1;P2;durP2;ratioP2
28304;SDS011;15569;42.652;23.040;2023-02-16T00:01:54;77.18;;;31.17;;
28304;SDS011;15569;42.652;23.040;2023-02-16T00:04:21;85.82;;;35.30;;
28304;SDS011;15569;42.652;23.040;2023-02-16T00:06:52;72.00;;;31.42;;
28304;SDS011;15569;42.652;23.040;2023-02-16T00:09:18;70.60;;;29.63;;
28304;SDS011;15569;42.652;23.040;2023-02-16T00:11:45;70.97;;;28.80;;
28304;SDS011;15569;42.652;23.040;2023-02-16T00:14:29;73.65;;;32.60;;
28304;SDS011;15569;42.652;23.040;2023-02-16T00:16:57;72.47;;;29.98;;
28304;SDS011;15569;42.652;23.040;2023-02-16T00:19:25;68.50;;;30.52;;
28304;SDS011;15569;42.652;23.040;2023-02-16T00:21:56;70.15;;;32.22;;
28304;SDS011;15569;42.652;23.040;2023-02-16T00:24:23;71.50;;;31.70;;
28304;SDS011;15569;42.652;23.040;2023-02-16T00:26:50;65.20;;;31.20;;
28304;SDS011;15569;42.652;23.040;2023-02-16T00:31:44;72.65;;;32.38;;
28304;SDS011;15569;42.652;23.040;2023-02-16T00:34:23;74.68;;;33.33;;
28304;SDS011;15569;42.652;23.040;2023-02-16T00:36:55;66.10;;;31.83;;
28304;SDS011;15569;42.652;23.040;2023-02-16T00:39:22;66.63;;;30.80;;
28304;SDS011;15569;42.652;23.040;2023-02-16T00:41:49;70.63;;;31.73;;
28304;SDS011;15569;42.652;23.040;2023-02-16T00:44:16;74.05;;;32.10;;
28304;SDS011;15569;42.652;23.040;2023-02-16T00:46:44;77.78;;;32.83;;
28304;SDS011;15569;42.652;23.040;2023-02-16T00:49:14;84.65;;;38.72;;
28304;SDS011;15569;42.652;23.040;2023-02-16T00:51:42;76.47;;;33.72;;
28304;SDS011;15569;42.652;23.040;2023-02-16T00:54:07;77.75;;;33.95;;
28304;SDS011;15569;42.652;23.040;2023-02-16T00:56:33;86.72;;;37.05;;
28304;SDS011;15569;42.652;23.040;2023-02-16T00:58:58;94.55;;;40.35;;
28304;SDS011;15569;42.652;23.040;2023-02-16T01:01:27;91.07;;;38.83;;
28304;SDS011;15569;42.652;23.040;2023-02-16T01:03:54;87.88;;;38.55;;
28304;SDS011;15569;42.652;23.040;2023-02-16T01:06:20;90.65;;;37.50;;
28304;SDS011;15569;42.652;23.040;2023-02-16T01:09:23;79.53;;;35.45;;
28304;SDS011;15569;42.652;23.040;2023-02-16T01:12:14;86.35;;;37.65;;
28304;SDS011;15569;42.652;23.040;2023-02-16T01:14:42;94.28;;;41.03;;
28304;SDS011;15569;42.652;23.040;2023-02-16T01:17:11;88.60;;;40.60;;
28304;SDS011;15569;42.652;23.040;2023-02-16T01:19:36;83.57;;;38.20;;
28304;SDS011;15569;42.652;23.040;2023-02-16T01:22:01;89.55;;;37.08;;
28304;SDS011;15569;42.652;23.040;2023-02-16T01:24:27;85.05;;;37.72;;
28304;SDS011;15569;42.652;23.040;2023-02-16T01:26:52;81.75;;;37.92;;
28304;SDS011;15569;42.652;23.040;2023-02-16T01:29:19;90.95;;;39.15;;
28304;SDS011;15569;42.652;23.040;2023-02-16T01:31:45;84.60;;;36.70;;
28304;SDS011;15569;42.652;23.040;2023-02-16T01:34:11;110.35;;;45.88;;
28304;SDS011;15569;42.652;23.040;2023-02-16T01:36:38;92.47;;;38.25;;
28304;SDS011;15569;42.652;23.040;2023-02-16T01:39:06;67.47;;;30.02;;
28304;SDS011;15569;42.652;23.040;2023-02-16T01:55:23;93.97;;;42.78;;
28304;SDS011;15569;42.652;23.040;2023-02-16T01:57:51;95.13;;;41.30;;
28304;SDS011;15569;42.652;23.040;2023-02-16T02:03:23;92.13;;;38.50;;
28304;SDS011;15569;42.652;23.040;2023-02-16T02:06:11;110.22;;;45.13;;
28304;SDS011;15569;42.652;23.040;2023-02-16T02:11:40;100.25;;;43.20;;
28304;SDS011;15569;42.652;23.040;2023-02-16T02:14:32;100.88;;;42.83;;
28304;SDS011;15569;42.652;23.040;2023-02-16T02:17:19;100.03;;;42.72;;
28304;SDS011;15569;42.652;23.040;2023-02-16T02:25:37;85.97;;;39.30;;
28304;SDS011;15569;42.652;23.040;2023-02-16T02:28:09;89.70;;;38.88;;
28304;SDS011;15569;42.652;23.040;2023-02-16T02:36:21;91.60;;;39.97;;
28304;SDS011;15569;42.652;23.040;2023-02-16T02:41:41;82.55;;;38.92;;
28304;SDS011;15569;42.652;23.040;2023-02-16T02:44:33;88.32;;;39.05;;
28304;SDS011;15569;42.652;23.040;2023-02-16T02:47:04;81.60;;;38.10;;
28304;SDS011;15569;42.652;23.040;2023-02-16T02:49:29;89.35;;;39.00;;
28304;SDS011;15569;42.652;23.040;2023-02-16T02:51:55;108.28;;;42.63;;
28304;SDS011;15569;42.652;23.040;2023-02-16T02:54:23;90.22;;;40.58;;
28304;SDS011;15569;42.652;23.040;2023-02-16T02:57:11;95.95;;;36.88;;
28304;SDS011;15569;42.652;23.040;2023-02-16T03:00:07;78.85;;;37.17;;
28304;SDS011;15569;42.652;23.040;2023-02-16T03:02:57;93.03;;;37.63;;
28304;SDS011;15569;42.652;23.040;2023-02-16T03:05:27;80.32;;;35.33;;
28304;SDS011;15569;42.652;23.040;2023-02-16T03:10:38;81.43;;;37.00;;
28304;SDS011;15569;42.652;23.040;2023-02-16T03:13:50;94.63;;;39.05;;
28304;SDS011;15569;42.652;23.040;2023-02-16T03:16:22;85.07;;;39.13;;
28304;SDS011;15569;42.652;23.040;2023-02-16T03:18:53;82.88;;;36.15;;
28304;SDS011;15569;42.652;23.040;2023-02-16T03:21:38;87.07;;;37.60;;
28304;SDS011;15569;42.652;23.040;2023-02-16T03:24:25;86.88;;;37.50;;
28304;SDS011;15569;42.652;23.040;2023-02-16T03:27:11;90.50;;;37.78;;
28304;SDS011;15569;42.652;23.040;2023-02-16T03:30:03;76.78;;;34.45;;
28304;SDS011;15569;42.652;23.040;2023-02-16T03:32:30;87.75;;;38.63;;
28304;SDS011;15569;42.652;23.040;2023-02-16T03:34:56;96.53;;;37.15;;
28304;SDS011;15569;42.652;23.040;2023-02-16T03:37:21;78.40;;;35.00;;
28304;SDS011;15569;42.652;23.040;2023-02-16T03:39:47;78.43;;;32.55;;
28304;SDS011;15569;42.652;23.040;2023-02-16T03:42:31;69.28;;;31.60;;
28304;SDS011;15569;42.652;23.040;2023-02-16T03:44:56;77.55;;;32.53;;
28304;SDS011;15569;42.652;23.040;2023-02-16T03:47:22;70.45;;;32.50;;
28304;SDS011;15569;42.652;23.040;2023-02-16T03:49:47;76.95;;;33.15;;
28304;SDS011;15569;42.652;23.040;2023-02-16T03:52:13;75.88;;;32.30;;
28304;SDS011;15569;42.652;23.040;2023-02-16T03:54:38;74.28;;;32.45;;
28304;SDS011;15569;42.652;23.040;2023-02-16T03:57:03;74.47;;;31.02;;
28304;SDS011;15569;42.652;23.040;2023-02-16T03:59:29;75.70;;;31.33;;
28304;SDS011;15569;42.652;23.040;2023-02-16T04:01:54;80.63;;;34.42;;
28304;SDS011;15569;42.652;23.040;2023-02-16T04:04:19;75.03;;;33.08;;
28304;SDS011;15569;42.652;23.040;2023-02-16T04:06:45;71.03;;;31.75;;
28304;SDS011;15569;42.652;23.040;2023-02-16T04:09:10;78.10;;;31.13;;
28304;SDS011;15569;42.652;23.040;2023-02-16T04:11:36;72.28;;;28.92;;
28304;SDS011;15569;42.652;23.040;2023-02-16T04:14:19;71.43;;;30.75;;
28304;SDS011;15569;42.652;23.040;2023-02-16T04:16:45;71.32;;;30.02;;
28304;SDS011;15569;42.652;23.040;2023-02-16T04:19:10;70.15;;;31.10;;
28304;SDS011;15569;42.652;23.040;2023-02-16T04:21:36;73.47;;;30.73;;
28304;SDS011;15569;42.652;23.040;2023-02-16T04:24:01;70.03;;;30.73;;
28304;SDS011;15569;42.652;23.040;2023-02-16T04:26:29;74.57;;;32.47;;
28304;SDS011;15569;42.652;23.040;2023-02-16T04:28:55;67.03;;;29.88;;
28304;SDS011;15569;42.652;23.040;2023-02-16T04:31:21;168.40;;;57.80;;
28304;SDS011;15569;42.652;23.040;2023-02-16T04:33:46;84.97;;;33.58;;
28304;SDS011;15569;42.652;23.040;2023-02-16T04:36:12;75.47;;;30.75;;
28304;SDS011;15569;42.652;23.040;2023-02-16T04:38:37;79.85;;;33.20;;
28304;SDS011;15569;42.652;23.040;2023-02-16T04:41:02;74.50;;;31.73;;
28304;SDS011;15569;42.652;23.040;2023-02-16T04:43:28;79.28;;;34.17;;
28304;SDS011;15569;42.652;23.040;2023-02-16T04:45:53;106.95;;;45.42;;
28304;SDS011;15569;42.652;23.040;2023-02-16T04:48:19;86.43;;;37.72;;
28304;SDS011;15569;42.652;23.040;2023-02-16T04:50:44;112.43;;;43.83;;
28304;SDS011;15569;42.652;23.040;2023-02-16T04:53:09;121.03;;;43.80;;
28304;SDS011;15569;42.652;23.040;2023-02-16T04:55:35;87.55;;;35.40;;
28304;SDS011;15569;42.652;23.040;2023-02-16T04:58:00;86.25;;;37.15;;
28304;SDS011;15569;42.652;23.040;2023-02-16T05:00:25;96.03;;;38.17;;
28304;SDS011;15569;42.652;23.040;2023-02-16T05:02:51;88.97;;;37.47;;
28304;SDS011;15569;42.652;23.040;2023-02-16T05:05:16;78.38;;;35.35;;
28304;SDS011;15569;42.652;23.040;2023-02-16T05:07:42;87.75;;;36.20;;
28304;SDS011;15569;42.652;23.040;2023-02-16T05:10:07;88.32;;;38.13;;
28304;SDS011;15569;42.652;23.040;2023-02-16T05:12:33;78.82;;;36.50;;
28304;SDS011;15569;42.652;23.040;2023-02-16T05:15:17;87.07;;;35.42;;
28304;SDS011;15569;42.652;23.040;2023-02-16T05:17:43;89.40;;;35.33;;
28304;SDS011;15569;42.652;23.040;2023-02-16T05:20:09;90.88;;;37.22;;
28304;SDS011;15569;42.652;23.040;2023-02-16T05:22:35;128.15;;;35.25;;
28304;SDS011;15569;42.652;23.040;2023-02-16T05:25:03;139.63;;;34.42;;
28304;SDS011;15569;42.652;23.040;2023-02-16T05:27:29;129.18;;;34.17;;
28304;SDS011;15569;42.652;23.040;2023-02-16T05:29:55;116.10;;;34.20;;
28304;SDS011;15569;42.652;23.040;2023-02-16T05:32:22;129.55;;;35.30;;
28304;SDS011;15569;42.652;23.040;2023-02-16T05:34:47;148.02;;;37.10;;
28304;SDS011;15569;42.652;23.040;2023-02-16T05:37:13;109.97;;;35.78;;
28304;SDS011;15569;42.652;23.040;2023-02-16T05:39:41;137.30;;;42.47;;
28304;SDS011;15569;42.652;23.040;2023-02-16T05:42:07;174.02;;;50.03;;
28304;SDS011;15569;42.652;23.040;2023-02-16T05:44:32;144.23;;;41.30;;
28304;SDS011;15569;42.652;23.040;2023-02-16T05:46:58;120.22;;;36.72;;
28304;SDS011;15569;42.652;23.040;2023-02-16T05:49:23;130.23;;;37.10;;
28304;SDS011;15569;42.652;23.040;2023-02-16T05:51:49;122.78;;;36.97;;
28304;SDS011;15569;42.652;23.040;2023-02-16T05:54:15;133.35;;;39.95;;
28304;SDS011;15569;42.652;23.040;2023-02-16T05:56:44;161.30;;;42.67;;
28304;SDS011;15569;42.652;23.040;2023-02-16T05:59:10;183.98;;;41.55;;
28304;SDS011;15569;42.652;23.040;2023-02-16T06:01:35;131.73;;;41.60;;
28304;SDS011;15569;42.652;23.040;2023-02-16T06:04:04;148.63;;;44.17;;
28304;SDS011;15569;42.652;23.040;2023-02-16T06:06:30;135.60;;;44.97;;
28304;SDS011;15569;42.652;23.040;2023-02-16T06:08:55;149.27;;;46.92;;
28304;SDS011;15569;42.652;23.040;2023-02-16T06:11:20;143.38;;;47.78;;
28304;SDS011;15569;42.652;23.040;2023-02-16T06:14:11;140.95;;;44.35;;
28304;SDS011;15569;42.652;23.040;2023-02-16T06:16:39;130.40;;;44.63;;
28304;SDS011;15569;42.652;23.040;2023-02-16T06:19:07;156.15;;;52.72;;
28304;SDS011;15569;42.652;23.040;2023-02-16T06:21:33;133.90;;;48.40;;
28304;SDS011;15569;42.652;23.040;2023-02-16T06:23:59;138.60;;;45.67;;
28304;SDS011;15569;42.652;23.040;2023-02-16T06:26:25;101.20;;;39.05;;
28304;SDS011;15569;42.652;23.040;2023-02-16T06:28:51;114.25;;;39.65;;
28304;SDS011;15569;42.652;23.040;2023-02-16T06:31:16;108.72;;;40.08;;
28304;SDS011;15569;42.652;23.040;2023-02-16T06:33:42;97.80;;;36.85;;
28304;SDS011;15569;42.652;23.040;2023-02-16T06:36:07;94.85;;;36.08;;
28304;SDS011;15569;42.652;23.040;2023-02-16T06:38:33;103.65;;;36.25;;
28304;SDS011;15569;42.652;23.040;2023-02-16T06:40:59;121.50;;;39.25;;
28304;SDS011;15569;42.652;23.040;2023-02-16T06:43:24;103.65;;;33.90;;
28304;SDS011;15569;42.652;23.040;2023-02-16T06:45:50;114.78;;;40.88;;
28304;SDS011;15569;42.652;23.040;2023-02-16T06:48:16;126.30;;;41.83;;
28304;SDS011;15569;42.652;23.040;2023-02-16T06:50:41;108.32;;;38.60;;
28304;SDS011;15569;42.652;23.040;2023-02-16T06:53:07;102.28;;;39.35;;
28304;SDS011;15569;42.652;23.040;2023-02-16T06:55:32;110.45;;;39.83;;
28304;SDS011;15569;42.652;23.040;2023-02-16T06:58:01;112.10;;;41.97;;
28304;SDS011;15569;42.652;23.040;2023-02-16T07:00:31;125.63;;;40.50;;
28304;SDS011;15569;42.652;23.040;2023-02-16T07:02:57;114.90;;;38.55;;
28304;SDS011;15569;42.652;23.040;2023-02-16T07:05:23;113.90;;;38.20;;
28304;SDS011;15569;42.652;23.040;2023-02-16T07:07:48;88.88;;;35.22;;
28304;SDS011;15569;42.652;23.040;2023-02-16T07:10:14;97.57;;;32.70;;
28304;SDS011;15569;42.652;23.040;2023-02-16T07:12:39;95.30;;;29.00;;
28304;SDS011;15569;42.652;23.040;2023-02-16T07:15:05;99.68;;;30.55;;
28304;SDS011;15569;42.652;23.040;2023-02-16T07:17:30;77.10;;;29.35;;
28304;SDS011;15569;42.652;23.040;2023-02-16T07:19:56;103.53;;;30.77;;
28304;SDS011;15569;42.652;23.040;2023-02-16T07:22:21;93.22;;;30.00;;
28304;SDS011;15569;42.652;23.040;2023-02-16T07:24:47;97.78;;;31.50;;
28304;SDS011;15569;42.652;23.040;2023-02-16T07:27:12;78.68;;;29.30;;
28304;SDS011;15569;42.652;23.040;2023-02-16T07:29:37;65.38;;;28.55;;
28304;SDS011;15569;42.652;23.040;2023-02-16T07:32:03;64.05;;;27.27;;
28304;SDS011;15569;42.652;23.040;2023-02-16T07:34:28;70.90;;;28.13;;
28304;SDS011;15569;42.652;23.040;2023-02-16T07:36:54;72.43;;;29.35;;
28304;SDS011;15569;42.652;23.040;2023-02-16T07:39:19;65.10;;;26.92;;
28304;SDS011;15569;42.652;23.040;2023-02-16T07:41:45;70.85;;;27.40;;
28304;SDS011;15569;42.652;23.040;2023-02-16T07:44:10;55.80;;;24.30;;
28304;SDS011;15569;42.652;23.040;2023-02-16T07:46:35;60.00;;;24.30;;
28304;SDS011;15569;42.652;23.040;2023-02-16T07:49:01;58.38;;;24.00;;
28304;SDS011;15569;42.652;23.040;2023-02-16T07:51:27;71.75;;;27.63;;
28304;SDS011;15569;42.652;23.040;2023-02-16T07:53:58;52.88;;;22.50;;
28304;SDS011;15569;42.652;23.040;2023-02-16T07:56:26;45.10;;;20.75;;
28304;SDS011;15569;42.652;23.040;2023-02-16T07:58:53;46.25;;;19.85;;
28304;SDS011;15569;42.652;23.040;2023-02-16T08:01:20;46.53;;;19.85;;
28304;SDS011;15569;42.652;23.040;2023-02-16T08:03:46;37.55;;;19.17;;
28304;SDS011;15569;42.652;23.040;2023-02-16T08:06:12;42.15;;;16.58;;
28304;SDS011;15569;42.652;23.040;2023-02-16T08:08:38;41.80;;;18.13;;
28304;SDS011;15569;42.652;23.040;2023-02-16T08:11:11;38.83;;;17.52;;
28304;SDS011;15569;42.652;23.040;2023-02-16T08:13:41;43.25;;;18.17;;
28304;SDS011;15569;42.652;23.040;2023-02-16T08:16:07;35.40;;;15.68;;
28304;SDS011;15569;42.652;23.040;2023-02-16T08:18:38;38.50;;;15.73;;
28304;SDS011;15569;42.652;23.040;2023-02-16T08:21:09;39.70;;;16.55;;
28304;SDS011;15569;42.652;23.040;2023-02-16T08:23:59;32.97;;;15.50;;
28304;SDS011;15569;42.652;23.040;2023-02-16T08:26:32;36.92;;;16.55;;
28304;SDS011;15569;42.652;23.040;2023-02-16T08:29:00;39.25;;;16.48;;
28304;SDS011;15569;42.652;23.040;2023-02-16T08:31:27;33.05;;;15.88;;
28304;SDS011;15569;42.652;23.040;2023-02-16T08:33:54;38.25;;;15.80;;
28304;SDS011;15569;42.652;23.040;2023-02-16T08:38:48;31.42;;;16.65;;
28304;SDS011;15569;42.652;23.040;2023-02-16T08:41:18;214.30;;;63.35;;
28304;SDS011;15569;42.652;23.040;2023-02-16T08:43:45;121.47;;;45.22;;
28304;SDS011;15569;42.652;23.040;2023-02-16T08:46:12;47.45;;;19.85;;
28304;SDS011;15569;42.652;23.040;2023-02-16T08:48:37;38.25;;;15.82;;
28304;SDS011;15569;42.652;23.040;2023-02-16T08:51:04;35.85;;;14.25;;
28304;SDS011;15569;42.652;23.040;2023-02-16T08:53:32;38.97;;;14.73;;
28304;SDS011;15569;42.652;23.040;2023-02-16T08:55:59;29.80;;;12.80;;
28304;SDS011;15569;42.652;23.040;2023-02-16T08:58:26;39.75;;;14.10;;
28304;SDS011;15569;42.652;23.040;2023-02-16T09:00:52;33.45;;;13.77;;
28304;SDS011;15569;42.652;23.040;2023-02-16T09:03:18;33.30;;;13.10;;
28304;SDS011;15569;42.652;23.040;2023-02-16T09:05:46;37.42;;;14.07;;
28304;SDS011;15569;42.652;23.040;2023-02-16T09:08:17;36.60;;;14.05;;
28304;SDS011;15569;42.652;23.040;2023-02-16T09:10:43;33.85;;;14.10;;
28304;SDS011;15569;42.652;23.040;2023-02-16T09:13:08;35.20;;;13.80;;
28304;SDS011;15569;42.652;23.040;2023-02-16T09:15:38;47.42;;;21.23;;
28304;SDS011;15569;42.652;23.040;2023-02-16T09:18:03;31.48;;;16.13;;
28304;SDS011;15569;42.652;23.040;2023-02-16T09:20:29;38.88;;;15.20;;
28304;SDS011;15569;42.652;23.040;2023-02-16T09:22:55;36.40;;;13.65;;
28304;SDS011;15569;42.652;23.040;2023-02-16T09:25:20;41.85;;;13.00;;
28304;SDS011;15569;42.652;23.040;2023-02-16T09:27:51;41.42;;;18.13;;
28304;SDS011;15569;42.652;23.040;2023-02-16T09:30:17;37.28;;;15.10;;
28304;SDS011;15569;42.652;23.040;2023-02-16T09:32:42;44.53;;;17.42;;
28304;SDS011;15569;42.652;23.040;2023-02-16T09:35:08;38.90;;;16.02;;
28304;SDS011;15569;42.652;23.040;2023-02-16T09:37:33;35.28;;;16.40;;
28304;SDS011;15569;42.652;23.040;2023-02-16T09:39:58;55.70;;;19.10;;
28304;SDS011;15569;42.652;23.040;2023-02-16T09:45:13;43.10;;;17.33;;
28304;SDS011;15569;42.652;23.040;2023-02-16T09:47:45;47.25;;;18.45;;
28304;SDS011;15569;42.652;23.040;2023-02-16T09:52:53;40.53;;;18.00;;
28304;SDS011;15569;42.652;23.040;2023-02-16T09:55:20;53.58;;;16.40;;
28304;SDS011;15569;42.652;23.040;2023-02-16T10:03:05;28.45;;;13.23;;
28304;SDS011;15569;42.652;23.040;2023-02-16T10:08:33;46.38;;;16.15;;
28304;SDS011;15569;42.652;23.040;2023-02-16T10:11:13;47.33;;;17.77;;
28304;SDS011;15569;42.652;23.040;2023-02-16T10:13:59;36.40;;;17.73;;
28304;SDS011;15569;42.652;23.040;2023-02-16T10:16:31;27.10;;;13.20;;
28304;SDS011;15569;42.652;23.040;2023-02-16T10:19:04;34.50;;;14.88;;
28304;SDS011;15569;42.652;23.040;2023-02-16T10:21:43;26.52;;;11.75;;
28304;SDS011;15569;42.652;23.040;2023-02-16T10:24:13;32.60;;;12.32;;
28304;SDS011;15569;42.652;23.040;2023-02-16T10:26:41;30.38;;;11.90;;
28304;SDS011;15569;42.652;23.040;2023-02-16T10:42:56;24.25;;;11.60;;
28304;SDS011;15569;42.652;23.040;2023-02-16T10:45:30;28.58;;;11.32;;
28304;SDS011;15569;42.652;23.040;2023-02-16T10:47:59;23.38;;;11.13;;
28304;SDS011;15569;42.652;23.040;2023-02-16T10:53:00;24.83;;;10.70;;
28304;SDS011;15569;42.652;23.040;2023-02-16T10:55:32;25.00;;;10.02;;
28304;SDS011;15569;42.652;23.040;2023-02-16T10:57:58;13.20;;;8.07;;
28304;SDS011;15569;42.652;23.040;2023-02-16T11:01:08;26.55;;;8.50;;
28304;SDS011;15569;42.652;23.040;2023-02-16T11:03:17;22.55;;;9.50;;
28304;SDS011;15569;42.652;23.040;2023-02-16T11:05:47;28.33;;;9.52;;
28304;SDS011;15569;42.652;23.040;2023-02-16T11:08:13;21.98;;;8.85;;
28304;SDS011;15569;42.652;23.040;2023-02-16T11:10:43;24.35;;;8.38;;
28304;SDS011;15569;42.652;23.040;2023-02-16T11:13:31;27.63;;;9.57;;
28304;SDS011;15569;42.652;23.040;2023-02-16T11:16:02;24.15;;;8.45;;
28304;SDS011;15569;42.652;23.040;2023-02-16T11:21:19;32.13;;;8.98;;
28304;SDS011;15569;42.652;23.040;2023-02-16T11:23:44;23.38;;;7.93;;
28304;SDS011;15569;42.652;23.040;2023-02-16T11:26:23;18.40;;;7.97;;
28304;SDS011;15569;42.652;23.040;2023-02-16T11:28:50;15.52;;;6.35;;
28304;SDS011;15569;42.652;23.040;2023-02-16T11:31:30;17.20;;;7.32;;
28304;SDS011;15569;42.652;23.040;2023-02-16T11:34:02;14.15;;;6.82;;
28304;SDS011;15569;42.652;23.040;2023-02-16T11:36:35;20.70;;;6.85;;
28304;SDS011;15569;42.652;23.040;2023-02-16T11:39:18;10.73;;;5.68;;
28304;SDS011;15569;42.652;23.040;2023-02-16T11:41:52;11.38;;;5.60;;
28304;SDS011;15569;42.652;23.040;2023-02-16T11:44:25;14.35;;;5.50;;
28304;SDS011;15569;42.652;23.040;2023-02-16T11:46:51;11.80;;;6.35;;
28304;SDS011;15569;42.652;23.040;2023-02-16T11:49:20;13.05;;;7.05;;
28304;SDS011;15569;42.652;23.040;2023-02-16T11:51:56;10.70;;;5.00;;
28304;SDS011;15569;42.652;23.040;2023-02-16T11:54:22;12.13;;;6.15;;
28304;SDS011;15569;42.652;23.040;2023-02-16T11:57:01;24.48;;;10.40;;
28304;SDS011;15569;42.652;23.040;2023-02-16T12:29:11;12.43;;;5.60;;
28304;SDS011;15569;42.652;23.040;2023-02-16T12:34:39;10.25;;;6.07;;
28304;SDS011;15569;42.652;23.040;2023-02-16T12:37:12;12.68;;;6.55;;
28304;SDS011;15569;42.652;23.040;2023-02-16T12:45:13;14.52;;;5.75;;
28304;SDS011;15569;42.652;23.040;2023-02-16T12:47:45;15.68;;;6.35;;
28304;SDS011;15569;42.652;23.040;2023-02-16T12:50:27;11.05;;;5.57;;
28304;SDS011;15569;42.652;23.040;2023-02-16T12:53:00;15.23;;;5.97;;
28304;SDS011;15569;42.652;23.040;2023-02-16T12:55:28;13.85;;;5.68;;
28304;SDS011;15569;42.652;23.040;2023-02-16T13:00:44;11.05;;;5.40;;
28304;SDS011;15569;42.652;23.040;2023-02-16T13:05:43;11.18;;;5.63;;
28304;SDS011;15569;42.652;23.040;2023-02-16T13:08:24;10.82;;;5.97;;
28304;SDS011;15569;42.652;23.040;2023-02-16T13:11:03;15.63;;;8.75;;
28304;SDS011;15569;42.652;23.040;2023-02-16T13:13:38;33.92;;;12.73;;
28304;SDS011;15569;42.652;23.040;2023-02-16T13:16:15;6.28;;;4.65;;
28304;SDS011;15569;42.652;23.040;2023-02-16T13:19:00;9.82;;;4.95;;
28304;SDS011;15569;42.652;23.040;2023-02-16T13:28:03;5.40;;;3.97;;
28304;SDS011;15569;42.652;23.040;2023-02-16T13:43:35;14.75;;;5.13;;
28304;SDS011;15569;42.652;23.040;2023-02-16T13:46:06;6.53;;;4.50;;
28304;SDS011;15569;42.652;23.040;2023-02-16T13:48:44;6.05;;;3.85;;
28304;SDS011;15569;42.652;23.040;2023-02-16T13:51:22;8.73;;;4.53;;
28304;SDS011;15569;42.652;23.040;2023-02-16T13:53:59;13.07;;;5.20;;
28304;SDS011;15569;42.652;23.040;2023-02-16T13:56:31;9.05;;;4.50;;
28304;SDS011;15569;42.652;23.040;2023-02-16T13:59:45;7.53;;;5.13;;
28304;SDS011;15569;42.652;23.040;2023-02-16T14:01:48;7.40;;;4.82;;
28304;SDS011;15569;42.652;23.040;2023-02-16T14:06:46;6.30;;;4.20;;
28304;SDS011;15569;42.652;23.040;2023-02-16T14:14:33;5.47;;;4.00;;
28304;SDS011;15569;42.652;23.040;2023-02-16T14:17:14;5.22;;;3.80;;
28304;SDS011;15569;42.652;23.040;2023-02-16T14:20:03;6.40;;;4.03;;
28304;SDS011;15569;42.652;23.040;2023-02-16T14:25:40;4.50;;;3.65;;
28304;SDS011;15569;42.652;23.040;2023-02-16T14:30:57;6.28;;;3.60;;
28304;SDS011;15569;42.652;23.040;2023-02-16T14:36:17;7.22;;;4.30;;
28304;SDS011;15569;42.652;23.040;2023-02-16T14:38:44;5.38;;;3.55;;
28304;SDS011;15569;42.652;23.040;2023-02-16T14:43:47;5.18;;;4.03;;
28304;SDS011;15569;42.652;23.040;2023-02-16T14:46:20;5.43;;;3.67;;
28304;SDS011;15569;42.652;23.040;2023-02-16T14:49:10;9.65;;;3.78;;
28304;SDS011;15569;42.652;23.040;2023-02-16T14:57:48;6.13;;;4.03;;
28304;SDS011;15569;42.652;23.040;2023-02-16T15:01:01;4.70;;;3.92;;
28304;SDS011;15569;42.652;23.040;2023-02-16T15:03:42;4.78;;;3.83;;
28304;SDS011;15569;42.652;23.040;2023-02-16T15:06:17;5.00;;;3.78;;
28304;SDS011;15569;42.652;23.040;2023-02-16T15:08:56;9.60;;;6.13;;
28304;SDS011;15569;42.652;23.040;2023-02-16T15:11:36;8.13;;;5.68;;
28304;SDS011;15569;42.652;23.040;2023-02-16T15:14:26;6.00;;;4.07;;
28304;SDS011;15569;42.652;23.040;2023-02-16T15:16:55;5.75;;;4.57;;
28304;SDS011;15569;42.652;23.040;2023-02-16T15:19:25;6.05;;;4.30;;
28304;SDS011;15569;42.652;23.040;2023-02-16T15:22:06;5.65;;;5.05;;
28304;SDS011;15569;42.652;23.040;2023-02-16T15:24:42;6.65;;;4.53;;
28304;SDS011;15569;42.652;23.040;2023-02-16T15:27:17;6.18;;;4.53;;
28304;SDS011;15569;42.652;23.040;2023-02-16T15:50:10;53.85;;;22.08;;
28304;SDS011;15569;42.652;23.040;2023-02-16T15:52:36;13.65;;;7.57;;
28304;SDS011;15569;42.652;23.040;2023-02-16T15:55:03;17.83;;;9.13;;
28304;SDS011;15569;42.652;23.040;2023-02-16T15:57:32;9.00;;;4.50;;
28304;SDS011;15569;42.652;23.040;2023-02-16T16:00:02;25.58;;;7.57;;
28304;SDS011;15569;42.652;23.040;2023-02-16T16:02:41;491.77;;;153.85;;
28304;SDS011;15569;42.652;23.040;2023-02-16T16:05:21;110.45;;;37.53;;
28304;SDS011;15569;42.652;23.040;2023-02-16T16:07:49;307.30;;;88.78;;
28304;SDS011;15569;42.652;23.040;2023-02-16T16:10:17;342.52;;;104.47;;
28304;SDS011;15569;42.652;23.040;2023-02-16T16:12:44;433.15;;;134.73;;
28304;SDS011;15569;42.652;23.040;2023-02-16T16:15:18;680.17;;;218.77;;
28304;SDS011;15569;42.652;23.040;2023-02-16T16:17:47;340.35;;;106.40;;
28304;SDS011;15569;42.652;23.040;2023-02-16T16:20:27;252.88;;;74.78;;
28304;SDS011;15569;42.652;23.040;2023-02-16T16:22:56;437.13;;;124.80;;
28304;SDS011;15569;42.652;23.040;2023-02-16T16:27:58;194.43;;;55.67;;
28304;SDS011;15569;42.652;23.040;2023-02-16T16:30:26;62.75;;;23.67;;
28304;SDS011;15569;42.652;23.040;2023-02-16T16:33:00;133.27;;;40.05;;
28304;SDS011;15569;42.652;23.040;2023-02-16T16:38:26;36.10;;;14.45;;
28304;SDS011;15569;42.652;23.040;2023-02-16T16:40:57;651.72;;;188.40;;
28304;SDS011;15569;42.652;23.040;2023-02-16T16:48:45;91.70;;;41.13;;
28304;SDS011;15569;42.652;23.040;2023-02-16T16:51:16;51.75;;;22.45;;
28304;SDS011;15569;42.652;23.040;2023-02-16T16:53:54;49.15;;;22.58;;
28304;SDS011;15569;42.652;23.040;2023-02-16T16:56:28;37.35;;;18.23;;
28304;SDS011;15569;42.652;23.040;2023-02-16T16:58:55;77.05;;;26.40;;
28304;SDS011;15569;42.652;23.040;2023-02-16T17:01:23;186.73;;;43.83;;
28304;SDS011;15569;42.652;23.040;2023-02-16T17:03:49;389.60;;;102.85;;
28304;SDS011;15569;42.652;23.040;2023-02-16T17:06:15;713.50;;;209.90;;
28304;SDS011;15569;42.652;23.040;2023-02-16T17:08:42;167.68;;;53.55;;
28304;SDS011;15569;42.652;23.040;2023-02-16T17:11:11;202.70;;;56.30;;
28304;SDS011;15569;42.652;23.040;2023-02-16T17:13:44;183.68;;;51.20;;
28304;SDS011;15569;42.652;23.040;2023-02-16T17:16:12;123.03;;;38.05;;
28304;SDS011;15569;42.652;23.040;2023-02-16T17:18:40;117.07;;;33.28;;
28304;SDS011;15569;42.652;23.040;2023-02-16T17:21:06;182.00;;;50.83;;
28304;SDS011;15569;42.652;23.040;2023-02-16T17:23:31;57.47;;;23.40;;
28304;SDS011;15569;42.652;23.040;2023-02-16T17:25:58;40.13;;;16.48;;
28304;SDS011;15569;42.652;23.040;2023-02-16T17:28:23;45.03;;;17.67;;
28304;SDS011;15569;42.652;23.040;2023-02-16T17:30:49;139.32;;;42.92;;
28304;SDS011;15569;42.652;23.040;2023-02-16T17:33:15;42.08;;;18.80;;
28304;SDS011;15569;42.652;23.040;2023-02-16T17:35:40;43.72;;;17.58;;
28304;SDS011;15569;42.652;23.040;2023-02-16T17:38:11;37.00;;;15.80;;
28304;SDS011;15569;42.652;23.040;2023-02-16T17:40:41;48.08;;;20.15;;